.
WxDataArchive / Data Records for 2015-03-17
2015-03-16 March 2015 2015-03-18

Data Records for Tuesday, 17 March 2015

Time	Temp	Chill	HIndex	Humid	Dewpt	 Wind 	HiWind	WindDir	Rain 	Barom
-----	----	-----	------	-----	-----	------	------	-------	-----	-----
00:00	60.5	60.5	60.5	63	47.8	2	5	248	0.00	29.752 
00:05	60.4	60.4	60.4	64	48.2	2	5	248	0.00	29.752 
00:10	60.1	60.1	60.1	64	47.9	1	4	248	0.00	29.752 
00:15	59.9	59.9	59.9	65	48.1	1	5	248	0.00	29.749 
00:20	59.8	59.8	59.8	65	48.0	1	6	248	0.00	29.749 
00:25	59.6	59.6	59.6	65	47.8	2	5	248	0.00	29.749 
00:30	59.5	59.5	59.5	66	48.1	1	3	248	0.00	29.750 
00:35	59.5	59.5	59.5	66	48.1	2	4	248	0.00	29.750 
00:40	59.5	59.5	59.5	66	48.1	2	5	248	0.00	29.750 
00:45	59.5	59.5	59.5	66	48.1	1	5	248	0.00	29.758 
00:50	59.5	59.5	59.5	67	48.5	2	4	248	0.00	29.758 
00:55	59.5	59.5	59.5	67	48.5	3	7	270	0.00	29.758 
01:00	59.0	59.0	59.0	67	48.1	2	6	270	0.00	29.772 
01:05	58.6	58.6	58.6	69	48.5	2	4	292	0.00	29.772 
01:10	58.3	58.3	58.3	70	48.6	1	3	270	0.00	29.772 
01:15	57.8	57.8	57.8	71	48.5	1	3	270	0.00	29.764 
01:20	57.5	57.5	57.5	72	48.5	1	5	248	0.00	29.764 
01:25	57.5	57.5	57.5	73	48.9	1	3	248	0.00	29.764 
01:30	57.3	57.3	57.3	73	48.7	1	3	248	0.00	29.757 
01:35	57.2	57.2	57.2	73	48.6	1	3	248	0.00	29.757 
01:40	57.2	57.2	57.2	74	49.0	1	3	248	0.00	29.757 
01:45	57.2	57.2	57.2	75	49.3	1	4	248	0.00	29.751 
01:50	57.2	57.2	57.2	75	49.3	1	3	248	0.00	29.751 
01:55	57.2	57.2	57.2	75	49.3	1	3	248	0.00	29.751 
02:00	57.2	57.2	57.2	75	49.3	0	3	248	0.00	29.755 
02:05	56.9	56.9	56.9	75	49.1	0	2	248	0.00	29.755 
02:10	56.7	56.7	56.7	76	49.2	1	5	292	0.00	29.755 
02:15	56.6	56.6	56.6	77	49.5	1	3	292	0.00	29.758 
02:20	56.5	56.5	56.5	77	49.4	1	2	292	0.00	29.758 
02:25	56.3	56.3	56.3	77	49.2	1	3	292	0.00	29.758 
02:30	56.2	56.2	56.2	78	49.4	1	3	292	0.00	29.766 
02:35	56.0	56.0	56.0	78	49.2	1	3	292	0.00	29.766 
02:40	55.9	55.9	55.9	78	49.1	1	2	292	0.00	29.766 
02:45	55.6	55.6	55.6	79	49.2	1	3	292	0.00	29.773 
02:50	55.6	55.6	55.6	78	48.8	1	3	292	0.00	29.773 
02:55	55.3	55.3	55.3	78	48.6	0	2	292	0.00	29.773 
03:00	55.1	55.1	55.1	79	48.7	1	3	292	0.00	29.783 
03:05	55.0	55.0	55.0	78	48.3	1	4	292	0.00	29.783 
03:10	54.7	54.7	54.7	77	47.6	2	4	292	0.00	29.783 
03:15	54.4	54.4	54.4	72	45.6	4	10	292	0.00	29.795 
03:20	54.1	54.1	54.1	66	43.0	2	6	338	0.00	29.795 
03:25	53.6	53.6	53.6	63	41.3	3	7	292	0.00	29.795 
03:30	53.3	53.3	53.3	62	40.6	2	10	270	0.00	29.803 
03:35	52.9	52.9	52.9	62	40.2	2	7	315	0.00	29.803 
03:40	52.3	52.3	52.3	61	39.3	4	8	338	0.00	29.803 
03:45	51.9	51.9	51.9	61	38.9	3	10	338	0.00	29.820 
03:50	51.4	51.4	51.4	62	38.8	2	6	338	0.00	29.820 
03:55	51.0	51.0	51.0	62	38.4	2	5	315	0.00	29.820 
04:00	50.5	50.5	50.5	62	38.0	1	6	338	0.00	29.831 
04:05	50.2	50.2	50.2	63	38.1	2	5	338	0.00	29.831 
04:10	49.9	49.9	49.9	63	37.8	3	9	338	0.00	29.831 
04:15	49.6	49.6	49.6	64	37.9	2	6	338	0.00	29.835 
04:20	49.4	49.4	49.4	64	37.7	1	6	338	0.00	29.835 
04:25	49.1	49.1	49.1	65	37.8	1	5	338	0.00	29.835 
04:30	48.9	48.9	48.9	65	37.7	2	6	338	0.00	29.837 
04:35	48.6	48.6	48.6	66	37.8	1	4	338	0.00	29.837 
04:40	48.3	48.3	48.3	67	37.9	1	5	338	0.00	29.837 
04:45	48.0	48.0	48.0	67	37.6	0	2	338	0.00	29.853 
04:50	47.9	47.9	47.9	68	37.9	1	3	338	0.00	29.853 
04:55	47.6	47.6	47.6	69	37.9	1	5	338	0.00	29.853 
05:00	47.4	47.4	47.4	69	37.7	1	4	338	0.00	29.869 
05:05	47.1	47.1	47.1	69	37.5	1	2	248	0.00	29.869 
05:10	47.0	47.0	47.0	70	37.7	1	3	248	0.00	29.869 
05:15	46.7	46.7	46.7	70	37.4	1	4	315	0.00	29.876 
05:20	46.5	46.5	46.5	70	37.3	1	4	315	0.00	29.876 
05:25	46.4	46.4	46.4	70	37.2	1	3	315	0.00	29.876 
05:30	46.2	46.2	46.2	70	37.0	1	3	315	0.00	29.886 
05:35	46.1	46.1	46.1	71	37.2	1	3	315	0.00	29.886 
05:40	46.0	46.0	46.0	71	37.1	1	4	315	0.00	29.886 
05:45	45.8	45.8	45.8	71	36.9	1	3	315	0.00	29.892 
05:50	45.7	45.7	45.7	72	37.2	2	4	315	0.00	29.892 
05:55	45.7	45.7	45.7	71	36.8	1	4	315	0.00	29.892 
06:00	45.5	45.5	45.5	72	37.0	3	8	338	0.00	29.906 
06:05	45.4	45.4	45.4	72	36.9	3	7	338	0.00	29.906 
06:10	45.2	45.2	45.2	73	37.1	2	6	315	0.00	29.906 
06:15	45.1	45.1	45.1	73	37.0	2	5	22	0.00	29.928 
06:20	45.1	45.1	45.1	74	37.3	2	7	338	0.00	29.928 
06:25	44.9	44.9	44.9	74	37.1	1	5	0	0.00	29.928 
06:30	44.9	44.9	44.9	75	37.5	1	5	338	0.00	29.935 
06:35	44.8	44.8	44.8	75	37.4	1	5	338	0.00	29.935 
06:40	44.6	44.6	44.6	75	37.2	1	5	338	0.00	29.935 
06:45	44.5	44.5	44.5	75	37.1	2	5	315	0.00	29.950 
06:50	44.3	44.3	44.3	76	37.2	1	4	338	0.00	29.950 
06:55	44.2	44.2	44.2	76	37.1	1	4	90	0.00	29.950 
07:00	44.1	44.1	44.1	76	37.0	2	7	338	0.00	29.967 
07:05	44.1	44.1	44.1	75	36.7	2	7	0	0.00	29.967 
07:10	43.9	43.9	43.9	74	36.2	2	6	315	0.00	29.967 
07:15	43.6	41.5	43.6	72	35.2	4	10	338	0.00	29.991 
07:20	43.2	43.2	43.2	70	34.1	3	7	338	0.00	29.991 
07:25	42.8	42.8	42.8	69	33.3	3	11	338	0.00	29.991 
07:30	42.5	42.5	42.5	69	33.1	3	9	338	0.00	30.013 
07:35	42.2	42.2	42.2	69	32.8	2	7	338	0.00	30.013 
07:40	41.9	41.9	41.9	70	32.8	1	5	315	0.00	30.013 
07:45	41.8	41.8	41.8	71	33.1	1	4	338	0.00	30.031 
07:50	41.6	41.6	41.6	71	32.9	1	4	315	0.00	30.031 
07:55	41.3	41.3	41.3	71	32.6	1	5	315	0.00	30.031 
08:00	41.1	41.1	41.1	69	31.7	1	4	338	0.00	30.048 
08:05	40.9	40.9	40.9	69	31.5	1	3	315	0.00	30.048 
08:10	40.9	40.9	40.9	69	31.5	1	6	292	0.00	30.048 
08:15	40.9	40.9	40.9	68	31.2	1	5	292	0.00	30.063 
08:20	40.8	40.8	40.8	68	31.1	1	5	292	0.00	30.063 
08:25	40.8	40.8	40.8	67	30.7	2	6	22	0.00	30.063 
08:30	40.6	40.6	40.6	67	30.5	2	6	338	0.00	30.066 
08:35	40.6	40.6	40.6	66	30.1	1	4	338	0.00	30.066 
08:40	40.5	40.5	40.5	66	30.0	2	5	0	0.00	30.066 
08:45	40.5	40.5	40.5	66	30.0	1	4	315	0.00	30.072 
08:50	40.3	40.3	40.3	65	29.5	2	5	315	0.00	30.072 
08:55	40.3	40.3	40.3	63	28.7	2	5	0	0.00	30.072 
09:00	40.3	40.3	40.3	58	26.7	3	13	338	0.00	30.084 
09:05	40.2	40.2	40.2	57	26.2	2	6	338	0.00	30.084 
09:10	40.2	40.2	40.2	56	25.8	3	10	338	0.00	30.084 
09:15	40.3	40.3	40.3	56	25.9	3	9	315	0.00	30.096 
09:20	40.5	40.5	40.5	56	26.1	3	15	338	0.00	30.096 
09:25	40.5	40.5	40.5	57	26.5	2	5	338	0.00	30.096 
09:30	40.3	40.3	40.3	57	26.3	3	13	338	0.00	30.111 
09:35	39.9	39.9	39.9	58	26.3	2	7	22	0.00	30.111 
09:40	39.9	39.9	39.9	59	26.7	2	9	315	0.00	30.111 
09:45	39.8	39.8	39.8	59	26.7	1	5	338	0.00	30.116 
09:50	39.6	39.6	39.6	59	26.5	2	7	45	0.00	30.116 
09:55	39.5	39.5	39.5	59	26.4	1	7	338	0.00	30.116 
10:00	39.3	39.3	39.3	59	26.2	2	7	338	0.00	30.135 
10:05	39.2	39.2	39.2	58	25.7	2	6	338	0.00	30.135 
10:10	38.9	38.9	38.9	56	24.6	3	9	0	0.00	30.135 
10:15	38.9	38.9	38.9	53	23.2	3	10	338	0.00	30.149 
10:20	38.9	38.9	38.9	55	24.1	1	5	338	0.00	30.149 
10:25	38.9	38.9	38.9	53	23.2	2	8	338	0.00	30.149 
10:30	38.8	35.9	38.8	50	21.8	4	10	338	0.00	30.160 
10:35	38.5	35.6	38.5	50	21.5	4	10	338	0.00	30.160 
10:40	38.5	35.6	38.5	52	22.4	4	11	315	0.00	30.160 
10:45	38.3	38.3	38.3	53	22.7	3	12	0	0.00	30.176 
10:50	38.3	38.3	38.3	54	23.1	2	9	338	0.00	30.176 
10:55	38.5	38.5	38.5	55	23.8	2	5	0	0.00	30.176 
11:00	38.5	38.5	38.5	53	22.9	3	9	338	0.00	30.182 
11:05	38.6	38.6	38.6	53	23.0	2	6	22	0.00	30.182 
11:10	38.3	38.3	38.3	52	22.2	3	9	338	0.00	30.182 
11:15	38.0	35.0	38.0	51	21.5	4	12	338	0.00	30.186 
11:20	37.9	37.9	37.9	50	20.9	3	12	315	0.00	30.186 
11:25	38.3	38.3	38.3	46	19.4	2	6	338	0.00	30.186 
11:30	39.3	39.3	39.3	45	19.8	2	7	45	0.00	30.191 
11:35	39.8	39.8	39.8	46	20.7	3	6	338	0.00	30.191 
11:40	40.1	40.1	40.1	46	21.0	3	9	338	0.00	30.191 
11:45	40.2	37.5	40.2	37	16.0	4	10	338	0.00	30.196 
11:50	40.6	38.0	40.6	36	15.8	4	10	45	0.00	30.196 
11:55	40.8	40.8	40.8	39	17.8	3	7	338	0.00	30.196 
12:00	40.8	40.8	40.8	37	16.6	3	10	338	0.00	30.198 
12:05	41.2	41.2	41.2	36	16.3	3	10	112	0.00	30.198 
12:10	41.6	41.6	41.6	35	16.0	2	7	45	0.00	30.198 
12:15	41.6	41.6	41.6	35	16.0	3	12	338	0.00	30.207 
12:20	40.8	40.8	40.8	35	15.3	2	5	0	0.00	30.207 
12:25	40.2	37.5	40.2	33	13.4	4	10	338	0.00	30.207 
12:30	40.6	40.6	40.6	36	15.8	2	6	338	0.00	30.210 
12:35	41.1	41.1	41.1	36	16.2	2	7	45	0.00	30.210 
12:40	41.2	41.2	41.2	35	15.6	3	7	112	0.00	30.210 
12:45	41.3	41.3	41.3	34	15.1	3	7	338	0.00	30.213 
12:50	41.3	41.3	41.3	34	15.1	3	7	338	0.00	30.213 
12:55	41.5	41.5	41.5	34	15.2	2	6	338	0.00	30.213 
13:00	41.3	41.3	41.3	32	13.7	3	7	338	0.00	30.214 
13:05	41.3	41.3	41.3	34	15.1	2	6	0	0.00	30.214 
13:10	41.1	41.1	41.1	35	15.6	3	9	292	0.00	30.214 
13:15	41.2	41.2	41.2	38	17.5	3	7	338	0.00	30.214 
13:20	41.8	41.8	41.8	38	18.1	2	7	45	0.00	30.214 
13:25	41.9	41.9	41.9	35	16.3	2	7	338	0.00	30.214 
13:30	41.9	41.9	41.9	35	16.3	2	6	338	0.00	30.216 
13:35	42.2	42.2	42.2	35	16.5	2	6	315	0.00	30.216 
13:40	41.8	41.8	41.8	33	14.8	2	5	315	0.00	30.216 
13:45	41.9	41.9	41.9	33	14.9	2	7	0	0.00	30.217 
13:50	41.6	41.6	41.6	32	14.0	3	10	338	0.00	30.217 
13:55	41.6	41.6	41.6	33	14.7	3	7	338	0.00	30.217 
14:00	41.9	41.9	41.9	33	14.9	2	6	338	0.00	30.216 
14:05	42.3	42.3	42.3	33	15.3	3	6	338	0.00	30.216 
14:10	42.3	42.3	42.3	31	13.8	3	6	338	0.00	30.216 
14:15	42.3	42.3	42.3	31	13.8	2	7	315	0.00	30.216 
14:20	42.6	42.6	42.6	32	14.8	2	5	338	0.00	30.216 
14:25	43.1	43.1	43.1	32	15.3	2	6	338	0.00	30.216 
14:30	43.1	43.1	43.1	30	13.8	2	4	315	0.00	30.213 
14:35	43.2	43.2	43.2	31	14.6	2	9	338	0.00	30.213 
14:40	43.2	41.0	43.2	30	13.9	4	11	0	0.00	30.213 
14:45	43.1	43.1	43.1	28	12.2	3	9	292	0.00	30.213 
14:50	43.3	43.3	43.3	31	14.7	2	7	315	0.00	30.213 
14:55	43.6	43.6	43.6	28	12.7	2	7	248	0.00	30.213 
15:00	43.6	43.6	43.6	28	12.7	3	6	315	0.00	30.211 
15:05	43.9	43.9	43.9	28	12.9	2	5	315	0.00	30.211 
15:10	43.8	43.8	43.8	27	12.0	2	7	22	0.00	30.211 
15:15	43.6	43.6	43.6	29	13.5	2	7	338	0.00	30.209 
15:20	43.9	43.9	43.9	29	13.7	2	5	338	0.00	30.209 
15:25	44.1	44.1	44.1	28	13.1	3	6	338	0.00	30.209 
15:30	44.5	44.5	44.5	28	13.4	2	6	315	0.00	30.202 
15:35	44.5	44.5	44.5	27	12.6	3	9	270	0.00	30.202 
15:40	44.2	44.2	44.2	28	13.2	2	5	292	0.00	30.202 
15:45	44.5	44.5	44.5	27	12.6	3	7	338	0.00	30.201 
15:50	44.5	44.5	44.5	28	13.4	2	4	270	0.00	30.201 
15:55	44.3	44.3	44.3	27	12.5	2	7	338	0.00	30.201 
16:00	44.3	44.3	44.3	27	12.5	2	5	292	0.00	30.202 
16:05	44.5	44.5	44.5	28	13.4	2	6	292	0.00	30.202 
16:10	44.8	44.8	44.8	28	13.7	3	9	292	0.00	30.202 
16:15	44.6	42.6	44.6	27	12.7	4	9	315	0.00	30.205 
16:20	44.5	44.5	44.5	25	10.9	3	7	292	0.00	30.205 
16:25	44.5	44.5	44.5	26	11.8	3	5	315	0.00	30.205 
16:30	44.6	44.6	44.6	27	12.7	3	6	270	0.00	30.204 
16:35	44.3	44.3	44.3	27	12.5	2	5	338	0.00	30.204 
16:40	44.8	44.8	44.8	27	12.9	1	6	338	0.00	30.204 
16:45	44.8	44.8	44.8	27	12.9	1	5	270	0.00	30.205 
16:50	45.1	45.1	45.1	26	12.3	3	7	338	0.00	30.205 
16:55	44.6	44.6	44.6	25	11.0	2	8	338	0.00	30.205 
17:00	44.6	44.6	44.6	27	12.7	3	9	292	0.00	30.206 
17:05	44.5	44.5	44.5	26	11.8	3	7	315	0.00	30.206 
17:10	44.5	44.5	44.5	27	12.6	3	7	270	0.00	30.206 
17:15	44.2	44.2	44.2	27	12.4	3	10	292	0.00	30.210 
17:20	43.9	43.9	43.9	28	12.9	2	7	292	0.00	30.210 
17:25	43.9	41.8	43.9	28	12.9	4	12	338	0.00	30.210 
17:30	44.1	44.1	44.1	27	12.3	2	5	270	0.00	30.209 
17:35	44.1	44.1	44.1	30	14.7	3	6	292	0.00	30.209 
17:40	43.6	41.5	43.6	31	15.0	4	11	292	0.00	30.209 
17:45	43.2	41.0	43.2	31	14.6	4	11	270	0.00	30.220 
17:50	42.9	42.9	42.9	31	14.4	3	7	292	0.00	30.220 
17:55	42.5	42.5	42.5	35	16.8	3	11	292	0.00	30.220 
18:00	42.3	40.0	42.3	30	13.1	4	9	315	0.00	30.225 
18:05	41.8	39.4	41.8	28	11.1	4	11	292	0.00	30.225 
18:10	41.8	41.8	41.8	29	11.9	3	10	248	0.00	30.225 
18:15	41.5	39.1	41.5	29	11.6	4	10	315	0.00	30.226 
18:20	40.9	38.4	40.9	28	10.3	4	10	338	0.00	30.226 
18:25	40.8	40.8	40.8	30	11.8	3	6	338	0.00	30.226 
18:30	40.6	40.6	40.6	31	12.4	2	9	270	0.00	30.231 
18:35	40.5	40.5	40.5	31	12.3	3	13	315	0.00	30.231 
18:40	39.9	37.2	39.9	31	11.7	4	9	292	0.00	30.231 
18:45	39.5	36.7	39.5	32	12.1	4	12	292	0.00	30.242 
18:50	39.1	36.3	39.1	32	11.8	4	9	315	0.00	30.242 
18:55	38.8	38.8	38.8	31	10.8	3	11	292	0.00	30.242 
19:00	38.3	38.3	38.3	30	9.6	3	7	338	0.00	30.249 
19:05	38.0	38.0	38.0	31	10.1	3	7	270	0.00	30.249 
19:10	37.8	34.8	37.8	32	10.6	4	9	292	0.00	30.249 
19:15	37.5	37.5	37.5	32	10.4	3	9	292	0.00	30.258 
19:20	36.9	33.7	36.9	29	7.6	4	11	315	0.00	30.258 
19:25	36.5	33.3	36.5	28	6.5	4	12	292	0.00	30.258 
19:30	36.2	36.2	36.2	28	6.3	3	9	292	0.00	30.264 
19:35	36.0	36.0	36.0	30	7.6	3	7	0	0.00	30.264 
19:40	35.8	35.8	35.8	30	7.4	3	7	292	0.00	30.264 
19:45	35.6	35.6	35.6	32	8.7	2	7	292	0.00	30.268 
19:50	35.5	35.5	35.5	32	8.6	2	9	292	0.00	30.268 
19:55	35.2	35.2	35.2	31	7.6	3	6	338	0.00	30.268 
20:00	35.0	35.0	35.0	31	7.5	3	7	292	0.00	30.280 
20:05	34.9	34.9	34.9	30	6.6	3	7	315	0.00	30.280 
20:10	34.7	34.7	34.7	30	6.5	2	6	315	0.00	30.280 
20:15	34.6	34.6	34.6	30	6.4	2	7	292	0.00	30.284 
20:20	34.4	34.4	34.4	31	6.9	2	7	292	0.00	30.284 
20:25	34.4	34.4	34.4	31	6.9	2	7	292	0.00	30.284 
20:30	34.3	34.3	34.3	32	7.5	2	6	292	0.00	30.287 
20:35	34.1	34.1	34.1	32	7.4	2	6	292	0.00	30.287 
20:40	34.0	34.0	34.0	34	8.6	1	4	292	0.00	30.287 
20:45	33.8	33.8	33.8	35	9.1	1	5	292	0.00	30.289 
20:50	33.7	33.7	33.7	35	9.0	1	5	270	0.00	30.289 
20:55	33.5	33.5	33.5	36	9.4	1	4	292	0.00	30.289 
21:00	33.5	33.5	33.5	36	9.4	1	6	292	0.00	30.298 
21:05	33.4	33.4	33.4	36	9.4	1	5	292	0.00	30.298 
21:10	33.4	33.4	33.4	37	10.0	0	3	292	0.00	30.298 
21:15	33.1	33.1	33.1	37	9.7	0	3	292	0.00	30.305 
21:20	33.1	33.1	33.1	37	9.7	1	5	292	0.00	30.305 
21:25	33.1	33.1	33.1	37	9.7	1	4	338	0.00	30.305 
21:30	32.9	32.9	32.9	38	10.1	1	5	270	0.00	30.313 
21:35	32.9	32.9	32.9	38	10.1	1	4	292	0.00	30.313 
21:40	32.8	32.8	32.8	38	10.0	0	3	292	0.00	30.313 
21:45	32.7	32.7	32.7	39	10.5	0	3	292	0.00	30.314 
21:50	32.5	32.5	32.5	39	10.3	0	1	292	0.00	30.314 
21:55	32.2	32.2	32.2	39	10.1	0	2	292	0.00	30.314 
22:00	32.1	32.1	32.1	39	10.0	0	1	292	0.00	30.317 
22:05	31.9	31.9	31.9	40	10.4	0	2	292	0.00	30.317 
22:10	31.8	31.8	31.8	40	10.3	0	1	292	0.00	30.317 
22:15	31.8	31.8	31.8	40	10.3	0	2	292	0.00	30.317 
22:20	31.6	31.6	31.6	40	10.1	0	1	292	0.00	30.317 
22:25	31.5	31.5	31.5	40	10.0	0	1	292	0.00	30.317 
22:30	31.3	31.3	31.3	40	9.8	0	3	270	0.00	30.317 
22:35	31.3	31.3	31.3	41	10.4	0	1	270	0.00	30.317 
22:40	31.2	31.2	31.2	41	10.3	0	1	270	0.00	30.317 
22:45	31.0	31.0	31.0	41	10.1	0	0	---	0.00	30.316 
22:50	30.9	30.9	30.9	41	10.0	0	0	---	0.00	30.316 
22:55	30.6	30.6	30.6	42	10.3	0	0	---	0.00	30.316 
23:00	30.4	30.4	30.4	42	10.1	0	0	---	0.00	30.317 
23:05	30.1	30.1	30.1	43	10.3	0	1	270	0.00	30.317 
23:10	30.0	30.0	30.0	43	10.2	0	0	---	0.00	30.317 
23:15	29.8	29.8	29.8	43	10.1	0	0	---	0.00	30.317 
23:20	29.7	29.7	29.7	43	10.0	0	0	---	0.00	30.317 
23:25	29.4	29.4	29.4	44	10.2	0	0	---	0.00	30.317 
23:30	29.3	29.3	29.3	46	11.1	0	0	---	0.00	30.317 
23:35	29.0	29.0	29.0	46	10.8	0	0	---	0.00	30.317 
23:40	28.7	28.7	28.7	46	10.6	0	0	---	0.00	30.317 
23:45	28.2	28.2	28.2	48	11.1	0	0	---	0.00	30.319 
23:50	27.9	27.9	27.9	48	10.8	0	0	---	0.00	30.319 
23:55	27.5	27.5	27.5	49	10.9	0	0	---	0.00	30.319 

CoCoRaHS
IN-AL-39
A2 Web Hosting
Creative Commons License
GoDaddy
search engine by freefind advanced

loaded 2018-11-19 19:48:17 • last modified 2010-11-18 10:43:29
Privacy PolicyDisclaimer
• wx.awcolley.com is powered by PmWiki v.2002016 •
• all content (unless otherwise noted) © 2018 A W Colley